Flight Track Log - Related Links

Times and Time Zones

All times are in EDT time to prevent confusion due to time zone crossing. See the QFA905 flight status page for this flight to view local times or setup timezone preferences in your user account.

Time Position Orientation Groundspeed Altitude Reporting Facility
EDT Latitude Longitude Course Direction KTS MPH feet Rate Location/Type
Wed 04:46:51 AM -20.7130 116.7760 90° East 135 155  Level FlightAware ADS-B
Wed 04:47:11 AM -20.7123 116.7733 86° East 16,500 1,200 Climbing Aus ATC (Calculated)
Wed 04:47:11 AM -20.7110 116.7920 90° East 163 188 400 -29,091 Descending FlightAware ADS-B
Wed 04:47:19 AM -20.7123 116.7733 85° East 16,500 182 Climbing Aus ATC (Calculated)
Wed 04:47:44 AM -20.7090 116.8120 90° East 162 186 500 -17,633 Descending FlightAware ADS-B
Wed 04:48:08 AM -20.7220 116.8350 121° Southeast 197 227 2,100 1,846 Climbing FlightAware ADS-B
Wed 04:48:11 AM -20.7744 116.7848 59° Northeast 16,500  Climbing Aus ATC (Calculated)
Wed 04:48:36 AM -20.7360 116.8530 121° Southeast 197 227 2,100 -28,667 Descending FlightAware ADS-B
Wed 04:48:38 AM -20.7520 116.8260 238° Southwest 229 264 3,600 5,000 Climbing FlightAware ADS-B
Wed 04:49:00 AM -20.7710 116.8100 218° Southwest 256 295 4,100 1,176 Climbing FlightAware ADS-B
Wed 04:49:29 AM -20.8010 116.7910 211° Southwest 256 295 4,600 536 Climbing FlightAware ADS-B
Wed 04:49:56 AM -20.8270 116.7830 196° South 256 295 4,600 2,867 Level FlightAware ADS-B
Wed 04:50:06 AM -20.9375 116.8153 170° South 16,500 3,256 Climbing Aus ATC (Calculated)
Wed 04:51:11 AM -21.0055 116.8279 171° South 16,500 -349 Level Aus ATC (Calculated)
Wed 04:52:51 AM -21.1839 116.8613 349° North 16,500 -532 Level Aus ATC (Calculated)
Wed 04:53:15 AM -21.1062 116.8458 196° South 317 365 15,400 281 Descending Aus ATC (RADAR)
Wed 04:53:55 AM -21.1704 116.8584 170° South 334 384 16,800 2,564 Climbing Aus ATC (RADAR)
Wed 04:55:05 AM -21.2852 116.8658 177° South 331 381 20,100 2,308 Climbing Aus ATC (RADAR)
Wed 04:56:05 AM -21.3883 116.8626 182° South 360 414 21,800 1,909 Climbing Aus ATC (RADAR)
Wed 04:56:55 AM -21.4780 116.8603 181° South 371 427 23,600 1,976 Climbing Aus ATC (RADAR)
Wed 04:57:30 AM -21.5419 116.8580 182° South 380 437 24,600 1,800 Climbing Aus ATC (RADAR)
Wed 04:58:15 AM -21.6248 116.8554 182° South 385 443 26,000 1,600 Climbing Aus ATC (RADAR)
Wed 04:59:15 AM -21.7372 116.8526 181° South 394 453 27,400 1,409 Climbing Aus ATC (RADAR)
Wed 05:00:10 AM -21.8429 116.8503 181° South 405 466 28,700 1,513 Climbing Aus ATC (RADAR)
Wed 05:01:10 AM -21.9590 116.8481 181° South 406 467 30,300 1,620 Climbing Aus ATC (RADAR)
Wed 05:01:50 AM -22.0364 116.8462 181° South 406 467 31,400 911 Climbing Aus ATC (RADAR)
Wed 05:02:29 AM -22.1151 116.8444 181° South 417 480 31,500 568 Climbing Aus ATC (RADAR)
Wed 05:03:04 AM -22.1867 116.8426 181° South 428 493 32,100 554 Climbing Aus ATC (RADAR)
Wed 05:03:34 AM -22.2483 116.8410 181° South 435 501 32,100  Level Aus ATC (RADAR)
Wed 05:04:09 AM -22.3202 116.8398 181° South 435 501 32,100  Level Aus ATC (RADAR)
Wed 05:05:09 AM -22.4436 116.8367 181° South 436 502 32,100  Level Aus ATC (RADAR)
Wed 05:06:09 AM -22.5672 116.8335 181° South 436 502 32,100  Level Aus ATC (RADAR)
Wed 05:06:54 AM -22.6608 116.8307 182° South 439 505 32,100  Level Aus ATC (RADAR)
Wed 05:07:29 AM -22.7320 116.8294 181° South 434 499 32,100  Level Aus ATC (RADAR)
Wed 05:08:19 AM -22.8343 116.8270 181° South 434 499 32,100  Level Aus ATC (RADAR)
Wed 05:09:19 AM -22.9558 116.8239 181° South 429 494 32,100  Level Aus ATC (RADAR)
Wed 05:10:19 AM -23.0759 116.8213 181° South 423 487 32,100  Level Aus ATC (RADAR)
Wed 05:11:19 AM -23.1968 116.8182 181° South 427 491 32,100  Level Aus ATC (RADAR)
Wed 05:12:04 AM -23.2867 116.8162 181° South 426 490 32,100  Level Aus ATC (RADAR)
Wed 05:12:38 AM -23.3559 116.8142 181° South 422 486 32,100  Level Aus ATC (RADAR)
Wed 05:13:13 AM -23.4252 116.8124 181° South 421 484 32,100  Level Aus ATC (RADAR)
Wed 05:13:43 AM -23.4858 116.8112 181° South 426 490 32,100  Level Aus ATC (RADAR)
Wed 05:14:23 AM -23.5672 116.8097 181° South 432 497 32,100 60 Level Aus ATC (RADAR)
Wed 05:15:23 AM -23.6877 116.8067 181° South 429 494 32,200 50 Climbing Aus ATC (RADAR)
Wed 05:16:23 AM -23.8081 116.8036 181° South 427 491 32,200  Level Aus ATC (RADAR)
Wed 05:17:08 AM -23.8990 116.8016 181° South 430 495 32,200  Level Aus ATC (RADAR)
Wed 05:17:38 AM -23.9599 116.8004 181° South 430 495 32,200  Level Aus ATC (RADAR)
Wed 05:18:13 AM -24.0311 116.7989 181° South 433 498 32,200  Level Aus ATC (RADAR)
Wed 05:18:48 AM -24.1027 116.7976 181° South 435 501 32,200  Level Aus ATC (RADAR)
Wed 05:19:23 AM -24.1734 116.7954 182° South 433 498 32,200 63 Level Aus ATC (RADAR)
Wed 05:20:23 AM -24.2963 116.7930 181° South 437 503 32,300 50 Climbing Aus ATC (RADAR)
Wed 05:21:22 AM -24.4189 116.7896 181° South 436 502 32,300  Level Aus ATC (RADAR)
Wed 05:22:08 AM -24.5120 116.7879 181° South 440 506 32,300  Level Aus ATC (RADAR)
Wed 05:22:42 AM -24.5846 116.7867 181° South 442 509 32,300  Level Aus ATC (RADAR)
Wed 05:23:17 AM -24.6569 116.7852 181° South 442 509 32,300  Level Aus ATC (RADAR)
Wed 05:23:47 AM -24.7186 116.7829 182° South 440 506 32,300  Level Aus ATC (RADAR)
Wed 05:24:22 AM -24.7905 116.7797 182° South 440 506 32,300  Level Aus ATC (RADAR)
Wed 05:25:17 AM -24.9052 116.7783 181° South 444 511 32,300  Level Aus ATC (RADAR)
Wed 05:26:17 AM -25.0291 116.7744 182° South 441 507 32,300  Level Aus ATC (RADAR)
Wed 05:27:02 AM -25.1224 116.7748 180° South 444 511 32,300  Level Aus ATC (RADAR)
Wed 05:27:42 AM -25.2044 116.7722 182° South 440 506 32,300  Level Aus ATC (RADAR)
Wed 05:28:22 AM -25.2861 116.7695 182° South 438 504 32,300  Level Aus ATC (RADAR)
Wed 05:29:22 AM -25.4088 116.7662 181° South 437 503 32,300  Level Aus ATC (RADAR)
Wed 05:30:32 AM -25.5521 116.7631 181° South 437 503 32,300  Level Aus ATC (RADAR)
Wed 05:31:31 AM -25.6744 116.7592 182° South 437 503 32,300  Level Aus ATC (RADAR)
Wed 05:32:31 AM -25.7955 116.7508 184° South 433 498 32,300  Level Aus ATC (RADAR)
Wed 05:33:16 AM -25.8869 116.7456 183° South 436 502 32,300  Level Aus ATC (RADAR)
Wed 05:33:51 AM -25.9603 116.7491 178° South 443 510 32,300  Level Aus ATC (RADAR)
Wed 05:36:11 AM -26.3045 116.7418 181° South 38,000  Climbing Aus ATC (Calculated)
Wed 05:38:00 AM -26.5212 116.7371 181° South  Level FlightAware Approximate
Wed 05:39:00 AM -26.6405 116.7345 181° South  Level FlightAware Approximate
Wed 05:39:21 AM -26.6915 116.7323 181° South 38,000  Level Aus ATC (Calculated)
Wed 05:41:00 AM -26.4948 116.7406 North  Level FlightAware Approximate
Wed 05:42:00 AM -26.6140 116.7356 182° South  Level FlightAware Approximate
Wed 05:43:00 AM -26.7318 116.7322 181° South  Level FlightAware Approximate
Wed 05:44:00 AM -26.8510 116.7292 181° South  Level FlightAware Approximate
Wed 05:44:25 AM -27.2720 116.7180 181° South 38,000  Level Aus ATC (Calculated)
Wed 05:46:00 AM -27.4609 116.7133 181° South  Level FlightAware Approximate
Wed 05:46:41 AM -27.5623 116.7108 181° South 38,000  Level Aus ATC (Calculated)
Wed 05:47:00 AM -27.5802 116.7103 181° South  Level FlightAware Approximate
Wed 05:48:00 AM -27.7193 116.7068 181° South  Level FlightAware Approximate
Wed 05:48:50 AM -27.7879 116.7042 181° South 432 497 32,300  Level Aus ATC (RADAR)
Wed 05:49:24 AM -27.8572 116.6946 187° South 429 494 32,300  Level Aus ATC (RADAR)
Wed 05:49:59 AM -27.9281 116.6956 179° South 432 497 32,300  Level Aus ATC (RADAR)
Wed 05:50:59 AM -28.0478 116.6906 182° South 429 494 32,300  Level Aus ATC (RADAR)
Wed 05:51:59 AM -28.1679 116.6891 181° South 429 494 32,300  Level Aus ATC (RADAR)
Wed 05:52:39 AM -28.2467 116.6856 182° South 423 487 32,300  Level Aus ATC (RADAR)
Wed 05:53:14 AM -28.3147 116.6818 183° South 425 489 32,300  Level Aus ATC (RADAR)
Wed 05:53:49 AM -28.3837 116.6806 181° South 417 480 32,300  Level Aus ATC (RADAR)
Wed 05:54:24 AM -28.4525 116.6783 182° South 416 479 32,300  Level Aus ATC (RADAR)
Wed 05:54:59 AM -28.5212 116.6782 180° South 419 482 32,300  Level Aus ATC (RADAR)
Wed 05:55:44 AM -28.6096 116.6768 181° South 421 484 32,300  Level Aus ATC (RADAR)
Wed 05:56:19 AM -28.6779 116.6744 182° South 421 484 32,300  Level Aus ATC (RADAR)
Wed 05:56:53 AM -28.7462 116.6746 180° South 415 478 32,300  Level Aus ATC (RADAR)
Wed 05:57:28 AM -28.8141 116.6729 181° South 409 471 32,300  Level Aus ATC (RADAR)
Wed 05:57:58 AM -28.8729 116.6694 183° South 415 478 32,300 92 Level Aus ATC (RADAR)
Wed 05:58:33 AM -28.9407 116.6663 182° South 413 475 32,400 86 Climbing Aus ATC (RADAR)
Wed 05:59:08 AM -29.0101 116.6686 178° South 421 484 32,400  Level Aus ATC (RADAR)
Wed 05:59:43 AM -29.0785 116.6654 182° South 421 484 32,400  Level Aus ATC (RADAR)
Wed 06:00:18 AM -29.1471 116.6651 180° South 414 476 32,400  Level Aus ATC (RADAR)
Wed 06:01:13 AM -29.2553 116.6628 181° South 418 481 32,400  Level Aus ATC (RADAR)
Wed 06:02:13 AM -29.3728 116.6573 182° South 419 482 32,400  Level Aus ATC (RADAR)
Wed 06:02:53 AM -29.4518 116.6566 180° South 426 490 32,400  Level Aus ATC (RADAR)
Wed 06:03:28 AM -29.5204 116.6557 181° South 418 481 32,400  Level Aus ATC (RADAR)
Wed 06:04:03 AM -29.5889 116.6535 182° South 418 481 32,400  Level Aus ATC (RADAR)
Wed 06:04:33 AM -29.6477 116.6525 181° South 421 484 32,400  Level Aus ATC (RADAR)
Wed 06:05:07 AM -29.7160 116.6494 182° South 419 482 32,400  Level Aus ATC (RADAR)
Wed 06:06:02 AM -29.8240 116.6485 180° South 423 487 32,400  Level Aus ATC (RADAR)
Wed 06:06:52 AM -29.9214 116.6453 182° South 418 481 32,400 -353 Level Aus ATC (RADAR)
Wed 06:07:10 AM -29.9550 116.6480 181° South 422 486 32,000  Descending FlightAware ADS-B
Wed 06:07:27 AM -29.9899 116.6437 181° South 420 483 32,400  Climbing Aus ATC (RADAR)
Wed 06:07:45 AM -30.0240 116.6460 181° South 415 478 32,000 -500 Descending FlightAware ADS-B
Wed 06:08:15 AM -30.0830 116.6450 181° South 415 478 32,000  Level FlightAware ADS-B
Wed 06:08:55 AM -30.1620 116.6420 182° South 415 478 32,000  Level FlightAware ADS-B
Wed 06:09:25 AM -30.2210 116.6410 181° South 416 479 32,000  Level FlightAware ADS-B
Wed 06:10:00 AM -30.2890 116.6390 181° South 416 479 32,000  Level FlightAware ADS-B
Wed 06:10:35 AM -30.3580 116.6370 181° South 415 478 32,000 -943 Level FlightAware ADS-B
Wed 06:11:10 AM -30.4270 116.6350 181° South 418 481 30,900 -2,057 Descending FlightAware ADS-B
Wed 06:11:45 AM -30.4930 116.6330 181° South 404 465 29,600 -2,240 Descending FlightAware ADS-B
Wed 06:12:25 AM -30.5670 116.6250 185° South 382 440 28,100 -2,229 Descending FlightAware ADS-B
Wed 06:12:55 AM -30.6190 116.6060 197° South 373 429 27,000 -2,229 Descending FlightAware ADS-B
Wed 06:13:35 AM -30.6850 116.5800 199° South 375 432 25,500 -2,160 Descending FlightAware ADS-B
Wed 06:14:10 AM -30.7420 116.5580 198° South 371 427 24,300 -2,123 Descending FlightAware ADS-B
Wed 06:14:40 AM -30.7910 116.5400 198° South 358 412 23,200 -2,123 Descending FlightAware ADS-B
Wed 06:15:15 AM -30.8460 116.5180 199° South 354 407 22,000 -2,080 Descending FlightAware ADS-B
Wed 06:15:55 AM -30.9090 116.4930 199° South 358 412 20,600 -2,143 Descending FlightAware ADS-B
Wed 06:16:25 AM -30.9570 116.4750 198° South 355 409 19,500 -2,123 Descending FlightAware ADS-B
Wed 06:17:00 AM -31.0110 116.4530 199° South 345 397 18,300 -2,057 Descending FlightAware ADS-B
Wed 06:17:35 AM -31.0650 116.4320 198° South 341 392 17,100 -2,000 Descending FlightAware ADS-B
Wed 06:18:15 AM -31.1260 116.4080 199° South 337 388 15,800 -1,714 Descending FlightAware ADS-B
Wed 06:18:45 AM -31.1710 116.3910 198° South 326 375 15,100 -909 Descending FlightAware ADS-B
Wed 06:19:21 AM -31.2200 116.3710 199° South 304 350 14,800 -960 Descending FlightAware ADS-B
Wed 06:20:00 AM -31.2720 116.3510 198° South 293 337 13,900 -1,459 Descending FlightAware ADS-B
Wed 06:20:35 AM -31.3170 116.3330 199° South 289 333 13,000 -1,569 Descending FlightAware ADS-B
Wed 06:21:05 AM -31.3540 116.3180 199° South 288 331 12,200 -1,477 Descending FlightAware ADS-B
Wed 06:21:40 AM -31.3980 116.3010 198° South 273 314 11,400 -1,543 Descending FlightAware ADS-B
Wed 06:22:15 AM -31.4390 116.2790 205° Southwest 277 319 10,400 -1,800 Descending FlightAware ADS-B
Wed 06:22:40 AM -31.4670 116.2610 209° Southwest 275 316 9,600 -2,000 Descending FlightAware ADS-B
Wed 06:23:00 AM -31.4900 116.2460 209° Southwest 274 315 8,900 -2,057 Descending FlightAware ADS-B
Wed 06:23:15 AM -31.5070 116.2360 207° Southwest 276 318 8,400 -2,000 Descending FlightAware ADS-B
Wed 06:23:30 AM -31.5230 116.2250 210° Southwest 276 318 7,900 -1,800 Descending FlightAware ADS-B
Wed 06:23:55 AM -31.5510 116.2080 207° Southwest 274 315 7,200 -1,733 Descending FlightAware ADS-B
Wed 06:24:15 AM -31.5740 116.1930 209° Southwest 264 304 6,600 -1,733 Descending FlightAware ADS-B
Wed 06:24:40 AM -31.6010 116.1760 208° Southwest 261 300 5,900 -1,600 Descending FlightAware ADS-B
Wed 06:25:00 AM -31.6240 116.1610 209° Southwest 257 296 5,400 -1,350 Descending FlightAware ADS-B
Wed 06:25:20 AM -31.6440 116.1480 209° Southwest 255 293 5,000 -1,200 Descending FlightAware ADS-B
Wed 06:25:40 AM -31.6650 116.1350 208° Southwest 260 299 4,600 -933 Descending FlightAware ADS-B
Wed 06:26:05 AM -31.6910 116.1180 209° Southwest 240 276 4,300 -667 Descending FlightAware ADS-B
Wed 06:26:25 AM -31.7110 116.1060 207° Southwest 238 274 4,100 -450 Descending FlightAware ADS-B
Wed 06:26:45 AM -31.7290 116.0940 210° Southwest 225 259 4,000 -450 Descending FlightAware ADS-B
Wed 06:27:05 AM -31.7470 116.0820 210° Southwest 210 242 3,800 -720 Descending FlightAware ADS-B
Wed 06:27:10 AM -31.7510 116.0790 213° Southwest 200 230 3,700 -800 Descending FlightAware ADS-B
Wed 06:27:20 AM -31.7580 116.0710 224° Southwest 199 229 3,600 -1,000 Descending FlightAware ADS-B
Wed 06:27:40 AM -31.7690 116.0530 234° Southwest 195 224 3,200 -1,200 Descending FlightAware ADS-B
Wed 06:27:55 AM -31.7780 116.0400 231° Southwest 195 224 2,900 -960 Descending FlightAware ADS-B
Wed 06:28:05 AM -31.7830 116.0320 234° Southwest 193 222 2,800 -968 Descending FlightAware ADS-B
Wed 06:28:26 AM -31.7930 116.0160 234° Southwest 186 214 2,400 -1,000 Descending FlightAware ADS-B
Wed 06:28:35 AM -31.7990 116.0080 229° Southwest 182 209 2,300 -947 Descending FlightAware ADS-B
Wed 06:28:45 AM -31.8060 116.0040 206° Southwest 174 200 2,100 -1,000 Descending FlightAware ADS-B
Wed 06:29:05 AM -31.8210 116.0000 193° South 167 192 1,800 -857 Descending FlightAware ADS-B
Wed 06:29:20 AM -31.8320 115.9960 197° South 150 173 1,600 -750 Descending FlightAware ADS-B
Wed 06:29:45 AM -31.8500 115.9910 193° South 137 158 1,300 -811 Descending FlightAware ADS-B
Wed 06:29:57 AM -31.8560 115.9900 188° South 131 151 1,100 -857 Descending FlightAware ADS-B
Wed 06:30:20 AM -31.8710 115.9850 196° South 137 158 800 -789 Descending FlightAware ADS-B
Wed 06:30:35 AM -31.8810 115.9820 194° South 131 151 600 -649 Descending FlightAware ADS-B
Wed 06:30:57 AM -31.8930 115.9790 192° South 133 153 400 -600 Descending FlightAware ADS-B
Wed 06:31:15 AM -31.9040 115.9760 193° South 132 152 200 -667 Descending FlightAware ADS-B
Wed 06:31:55 AM -31.9310 115.9680 194° South 134 154 -300 Descending FlightAware ADS-B

Login

Don't have an account? Register now (free) for customized features, flight alerts, and more!